Time;durP1;ratioP1;P1;durP2;ratioP2;P2;SDS_P1;SDS_P2;PMS_P1;PMS_P2;Temp;Humidity;BMP_temperature;BMP_pressure;BME280_temperature;BME280_humidity;BME280_pressure;Samples;Min_cycle;Max_cycle;Signal;HPM_P1;HPM_P2
2022/03/22 00:00:36;;;;;;;15.27;5.65;;;;;;;4.01;62.86;101390.69;5129765;27;20019;-58
2022/03/22 00:03:04;;;;;;;20.73;6.95;;;;;;;4.04;62.28;101390.78;5129441;27;20328;-58
2022/03/22 00:05:30;;;;;;;16.17;5.97;;;;;;;4.00;62.56;101389.81;5117049;27;20034;-58
2022/03/22 00:07:56;;;;;;;15.13;6.10;;;;;;;3.95;62.52;101387.09;5111179;28;20074;-57
2022/03/22 00:10:22;;;;;;;19.35;6.38;;;;;;;3.95;62.95;101374.28;5109733;28;20028;-58
2022/03/22 00:12:49;;;;;;;15.68;6.55;;;;;;;3.97;63.14;101379.47;5109740;28;20074;-58
2022/03/22 00:15:17;;;;;;;19.90;6.72;;;;;;;3.58;62.73;101316.69;5116687;28;20050;-57
2022/03/22 00:17:42;;;;;;;18.02;6.22;;;;;;;3.91;63.01;101387.81;5108965;28;20106;-58
2022/03/22 00:20:10;;;;;;;16.33;6.78;;;;;;;3.82;63.01;101374.72;5107983;28;20050;-58
2022/03/22 00:22:38;;;;;;;12.65;6.13;;;;;;;3.82;62.96;101379.84;5109332;28;20095;-57
2022/03/22 00:25:05;;;;;;;17.33;6.13;;;;;;;3.80;63.33;101381.44;5110035;28;20024;-58
2022/03/22 00:30:21;;;;;;;17.98;5.90;;;;;;;3.82;63.89;101372.16;5113133;28;20038;-58
2022/03/22 00:32:48;;;;;;;18.42;6.28;;;;;;;3.61;63.83;101357.78;5124221;28;20247;-58
2022/03/22 00:35:17;;;;;;;18.75;6.57;;;;;;;3.69;63.81;101365.75;5119145;27;20032;-58
2022/03/22 00:37:43;;;;;;;15.90;7.13;;;;;;;3.73;64.00;101364.13;5105375;28;20168;-58
2022/03/22 00:40:18;;;;;;;18.17;6.15;;;;;;;3.74;63.38;101365.88;5106870;28;20016;-58
2022/03/22 00:42:48;;;;;;;20.20;7.13;;;;;;;3.63;63.81;101351.03;5126380;28;20039;-58
2022/03/22 00:45:17;;;;;;;19.58;6.65;;;;;;;3.60;64.10;101348.34;5126313;28;20023;-57
2022/03/22 00:47:48;;;;;;;18.20;6.32;;;;;;;3.32;63.95;101309.78;5111752;28;20043;-59
2022/03/22 00:50:16;;;;;;;16.02;6.30;;;;;;;3.65;63.72;101358.75;5105802;28;20027;-58
2022/03/22 00:52:42;;;;;;;17.60;6.97;;;;;;;3.64;63.34;101344.19;5104431;28;20249;-59
2022/03/22 00:55:09;;;;;;;12.88;6.40;;;;;;;3.63;63.88;101347.56;5105514;28;20136;-60
2022/03/22 00:57:34;;;;;;;17.08;6.47;;;;;;;3.58;64.16;101339.75;5105563;28;20100;-58
2022/03/22 01:00:06;;;;;;;14.02;6.45;;;;;;;3.65;64.25;101345.06;5122026;28;20027;-58
2022/03/22 01:02:38;;;;;;;17.48;6.18;;;;;;;3.25;63.80;101289.13;5112433;28;20028;-59
2022/03/22 01:05:11;;;;;;;16.15;6.80;;;;;;;3.61;63.40;101349.22;5105451;28;20111;-59
2022/03/22 01:07:38;;;;;;;20.30;6.25;;;;;;;3.58;63.67;101355.09;5106700;28;20327;-58
2022/03/22 01:10:07;;;;;;;19.73;6.47;;;;;;;3.52;64.42;101367.72;5105373;28;20032;-58
2022/03/22 01:12:34;;;;;;;16.55;6.50;;;;;;;3.50;64.85;101360.78;5125443;28;20047;-59
2022/03/22 01:15:00;;;;;;;17.48;5.93;;;;;;;3.51;64.57;101355.72;5114730;28;20228;-57
2022/03/22 01:17:26;;;;;;;13.68;5.80;;;;;;;3.45;64.65;101350.41;5116932;28;20331;-59
2022/03/22 01:19:51;;;;;;;15.38;6.13;;;;;;;3.46;64.31;101354.69;5125444;28;20024;-58
2022/03/22 01:22:17;;;;;;;19.50;6.90;;;;;;;3.45;64.38;101347.84;5123474;28;20035;-58
2022/03/22 01:24:44;;;;;;;17.48;6.85;;;;;;;3.43;63.89;101340.09;5096512;28;20021;-59
2022/03/22 01:27:10;;;;;;;16.05;6.43;;;;;;;3.37;64.30;101334.75;5088049;28;20032;-59
2022/03/22 01:29:37;;;;;;;16.23;7.25;;;;;;;3.35;64.28;101350.88;5097581;28;20030;-58
2022/03/22 01:32:04;;;;;;;17.63;6.63;;;;;;;3.39;64.41;101347.59;5103699;28;20251;-57
2022/03/22 01:34:46;;;;;;;17.17;6.97;;;;;;;3.37;65.00;101344.13;5105044;28;20024;-57
2022/03/22 01:37:12;;;;;;;17.00;6.18;;;;;;;3.38;64.76;101340.75;5104724;28;20080;-58
2022/03/22 01:39:37;;;;;;;16.88;6.60;;;;;;;3.38;64.92;101338.19;5103664;28;20384;-57
2022/03/22 01:42:04;;;;;;;18.88;6.55;;;;;;;3.34;64.67;101337.22;5104661;28;20016;-59
2022/03/22 01:44:29;;;;;;;14.75;6.28;;;;;;;3.36;64.07;101339.81;5104614;28;20047;-58
2022/03/22 01:47:03;;;;;;;18.73;5.97;;;;;;;2.99;64.30;101272.84;5104639;28;20047;-56
2022/03/22 01:49:30;;;;;;;16.92;6.13;;;;;;;3.34;64.70;101337.22;5106727;28;20038;-57
2022/03/22 01:51:56;;;;;;;13.73;5.15;;;;;;;3.34;63.93;101331.22;5125062;28;20024;-57
2022/03/22 01:54:22;;;;;;;18.08;7.10;;;;;;;3.28;65.01;101327.63;5106170;28;20062;-58
2022/03/22 01:56:49;;;;;;;18.50;6.10;;;;;;;3.29;64.33;101325.91;5118994;28;20029;-57
2022/03/22 01:59:15;;;;;;;16.48;6.43;;;;;;;3.25;64.27;101322.41;5118351;28;20324;-57
2022/03/22 02:07:14;;;;;;;19.00;5.82;;;;;;;3.22;64.92;101329.97;5105053;28;20099;-57
2022/03/22 02:09:41;;;;;;;14.07;6.07;;;;;;;3.23;65.17;101328.28;5083888;28;20351;-56
2022/03/22 02:12:07;;;;;;;14.38;6.20;;;;;;;3.25;65.18;101329.19;5114887;28;20112;-57
2022/03/22 02:14:33;;;;;;;13.68;6.05;;;;;;;3.22;64.81;101322.28;5114526;28;20039;-59
2022/03/22 02:17:05;;;;;;;22.20;6.63;;;;;;;3.19;65.22;101317.06;5116160;28;20028;-58
2022/03/22 02:19:31;;;;;;;13.88;6.18;;;;;;;3.19;65.47;101311.94;5105889;28;20031;-58
2022/03/22 02:22:01;;;;;;;18.05;6.50;;;;;;;3.07;65.58;101291.88;5124451;28;20271;-58
2022/03/22 02:24:26;;;;;;;13.05;6.15;;;;;;;3.13;65.52;101305.72;5106227;28;20016;-58
2022/03/22 02:26:52;;;;;;;15.98;6.63;;;;;;;3.13;65.74;101314.28;5111749;28;20366;-59
2022/03/22 02:29:18;;;;;;;15.85;5.53;;;;;;;3.14;65.65;101316.03;5119675;28;20232;-58
2022/03/22 02:31:43;;;;;;;18.27;6.20;;;;;;;3.17;64.85;101308.44;5103893;28;20028;-59
2022/03/22 02:34:09;;;;;;;13.75;5.45;;;;;;;3.17;65.31;101311.00;5103970;28;20309;-58
2022/03/22 02:36:34;;;;;;;19.30;6.90;;;;;;;3.17;64.97;101308.44;5124144;28;20066;-59
2022/03/22 02:39:00;;;;;;;12.68;5.82;;;;;;;3.18;66.11;101317.00;5107981;28;20027;-58
2022/03/22 02:41:26;;;;;;;14.98;6.78;;;;;;;3.14;65.68;101304.94;5103570;28;20031;-58
2022/03/22 02:43:53;;;;;;;15.75;5.97;;;;;;;3.15;65.88;101307.53;5109788;28;20027;-58
2022/03/22 02:46:19;;;;;;;12.98;5.50;;;;;;;3.12;65.71;101304.84;5123886;28;20325;-57
2022/03/22 02:48:45;;;;;;;16.98;6.93;;;;;;;3.10;66.05;101309.06;5122941;28;20054;-58
2022/03/22 02:51:12;;;;;;;16.67;6.75;;;;;;;2.86;65.73;101268.97;5123819;28;20062;-58
2022/03/22 02:53:38;;;;;;;15.05;5.90;;;;;;;3.08;65.13;101291.09;5109964;28;20232;-58
2022/03/22 02:56:04;;;;;;;14.15;7.20;;;;;;;3.13;65.94;101304.03;5103217;28;20024;-58
2022/03/22 02:58:30;;;;;;;17.75;5.82;;;;;;;3.15;64.72;101302.41;5122280;28;20020;-59
2022/03/22 03:00:55;;;;;;;15.77;5.72;;;;;;;3.18;64.29;101292.28;5121700;28;20069;-59
2022/03/22 03:03:22;;;;;;;12.50;6.00;;;;;;;3.20;64.74;101295.75;5123625;28;20028;-58
2022/03/22 03:05:51;;;;;;;17.67;6.75;;;;;;;3.21;65.42;101294.09;5109629;28;20015;-58
2022/03/22 03:08:18;;;;;;;14.05;6.68;;;;;;;3.19;64.88;101283.78;5102999;28;20058;-58
2022/03/22 03:10:45;;;;;;;20.33;6.97;;;;;;;3.12;65.54;101286.94;5103080;28;20371;-58
2022/03/22 03:13:11;;;;;;;13.60;6.25;;;;;;;3.12;65.46;101281.81;5102947;28;20036;-58
2022/03/22 03:15:37;;;;;;;22.80;6.53;;;;;;;3.12;65.21;101279.25;5101953;28;20101;-58
2022/03/22 03:18:03;;;;;;;15.98;6.82;;;;;;;3.12;65.43;101281.81;5103048;28;20023;-59
2022/03/22 03:20:29;;;;;;;14.98;6.43;;;;;;;3.10;65.65;101284.31;5102895;28;20434;-57
2022/03/22 03:22:55;;;;;;;19.08;6.55;;;;;;;3.07;65.02;101281.66;5109349;28;20027;-58
2022/03/22 03:25:21;;;;;;;12.50;5.95;;;;;;;3.09;65.66;101286.81;5123566;28;20095;-58
2022/03/22 03:27:47;;;;;;;18.15;6.93;;;;;;;3.02;65.79;101283.19;5103372;28;20032;-57
2022/03/22 03:30:12;;;;;;;18.02;6.97;;;;;;;2.98;66.01;101268.56;5119983;28;20111;-57
2022/03/22 03:32:38;;;;;;;12.73;5.57;;;;;;;3.09;65.62;101297.97;5111029;28;20063;-58
2022/03/22 03:35:05;;;;;;;14.98;6.45;;;;;;;3.17;64.70;101292.22;5102717;28;20024;-59
2022/03/22 03:37:35;;;;;;;11.18;6.68;;;;;;;3.16;63.74;101285.34;5102807;28;20050;-58
2022/03/22 03:40:05;;;;;;;17.00;6.10;;;;;;;3.22;64.29;101291.56;5102942;28;20024;-57
2022/03/22 03:42:31;;;;;;;16.52;6.32;;;;;;;3.30;64.14;101301.22;5122748;28;20034;-58
2022/03/22 03:47:41;;;;;;;14.50;6.50;;;;;;;3.25;64.00;101293.34;5101561;28;20039;-58
2022/03/22 03:50:07;;;;;;;15.18;6.15;;;;;;;3.29;63.20;101290.06;5108272;28;20321;-58
2022/03/22 03:52:36;;;;;;;15.25;6.43;;;;;;;3.32;63.58;101282.53;5102633;28;20096;-58
2022/03/22 03:55:05;;;;;;;16.35;6.97;;;;;;;2.99;63.90;101228.47;5118668;28;20048;-59
2022/03/22 03:57:31;;;;;;;20.45;9.10;;;;;;;3.38;62.19;101274.19;5118569;28;20027;-57
2022/03/22 03:59:56;;;;;;;14.63;7.25;;;;;;;3.36;63.04;101278.38;5103461;28;20248;-58
2022/03/22 04:02:23;;;;;;;13.05;6.13;;;;;;;3.41;62.64;101276.84;5092162;28;20030;-58
2022/03/22 04:04:52;;;;;;;10.13;5.53;;;;;;;3.49;61.44;101277.09;5102479;28;20031;-58
2022/03/22 04:07:21;;;;;;;10.60;5.57;;;;;;;3.51;61.31;101280.59;5101623;28;20039;-58
2022/03/22 04:09:47;;;;;;;15.57;5.95;;;;;;;3.51;60.73;101258.41;5099558;28;20046;-57
2022/03/22 04:12:13;;;;;;;16.63;6.22;;;;;;;3.62;62.04;101280.09;5103600;28;20036;-57
2022/03/22 04:14:38;;;;;;;14.82;6.57;;;;;;;3.67;60.52;101271.72;5106355;28;20020;-57
2022/03/22 04:17:08;;;;;;;12.00;5.90;;;;;;;3.61;59.47;101263.00;5106406;28;20347;-58
2022/03/22 04:19:35;;;;;;;12.35;5.95;;;;;;;3.73;59.35;101265.06;5105983;28;20028;-57
2022/03/22 04:22:04;;;;;;;13.85;5.38;;;;;;;3.81;59.57;101270.47;5105065;28;20069;-57
2022/03/22 04:24:30;;;;;;;13.45;6.78;;;;;;;3.86;59.24;101274.00;5105792;28;20081;-58
2022/03/22 04:32:41;;;;;;;11.57;5.57;;;;;;;3.94;59.64;101267.44;5105912;28;20036;-57
2022/03/22 04:32:44;;;;;;;14.68;5.85;;;;;;;4.03;56.95;101266.00;5105859;28;20072;-58
2022/03/22 04:35:14;;;;;;;15.82;5.72;;;;;;;4.11;57.65;101269.69;5105913;28;20070;-58
2022/03/22 04:37:41;;;;;;;15.40;5.63;;;;;;;4.12;57.60;101263.72;5107596;28;20054;-57
2022/03/22 04:40:07;;;;;;;12.88;5.82;;;;;;;4.21;56.88;101270.84;5104159;28;20088;-59
2022/03/22 04:42:34;;;;;;;11.95;5.43;;;;;;;4.23;55.95;101272.63;5105166;28;20088;-57
2022/03/22 04:44:59;;;;;;;14.57;5.72;;;;;;;4.27;55.98;101269.31;5105531;28;20194;-58
2022/03/22 04:47:26;;;;;;;14.80;6.38;;;;;;;4.22;56.15;101254.59;5105575;28;20039;-58
2022/03/22 04:49:52;;;;;;;15.80;6.18;;;;;;;4.34;55.44;101262.66;5105367;28;20032;-57
2022/03/22 04:57:47;;;;;;;11.20;6.03;;;;;;;4.46;55.26;101257.03;5105308;28;20028;-58
2022/03/22 05:00:13;;;;;;;12.20;5.78;;;;;;;4.57;55.73;101268.47;5104416;28;20065;-58
2022/03/22 05:02:38;;;;;;;11.30;5.20;;;;;;;4.64;55.31;101261.81;5105134;28;20047;-59
2022/03/22 05:05:04;;;;;;;14.27;5.85;;;;;;;4.71;55.44;101260.31;5104873;28;20038;-58
2022/03/22 05:07:30;;;;;;;11.20;5.47;;;;;;;4.76;54.39;101267.31;5106720;28;20047;-58
2022/03/22 05:09:55;;;;;;;13.45;5.80;;;;;;;4.85;53.69;101256.44;5125814;28;20039;-58
2022/03/22 05:12:21;;;;;;;8.73;5.35;;;;;;;4.97;53.94;101256.78;5125375;28;20068;-59
2022/03/22 05:14:50;;;;;;;11.40;5.63;;;;;;;4.97;53.86;101255.88;5125577;28;20332;-58
2022/03/22 05:17:21;;;;;;;15.25;5.93;;;;;;;4.98;53.79;101230.25;5125223;28;20023;-57
2022/03/22 05:19:49;;;;;;;11.07;6.20;;;;;;;5.09;53.38;101247.63;5120876;28;20047;-58
2022/03/22 05:22:15;;;;;;;11.48;5.78;;;;;;;5.17;54.04;101238.44;5104790;28;20492;-58
2022/03/22 05:24:41;;;;;;;14.90;6.20;;;;;;;5.25;53.88;101243.78;5124862;28;20046;-58
2022/03/22 05:27:07;;;;;;;17.58;6.75;;;;;;;5.16;53.62;101234.16;5110561;28;20032;-62
2022/03/22 05:29:33;;;;;;;11.93;6.22;;;;;;;5.33;51.78;101245.72;5115366;28;20032;-58
2022/03/22 05:31:58;;;;;;;11.57;7.00;;;;;;;5.44;52.62;101255.38;5125323;28;20239;-58
2022/03/22 05:34:24;;;;;;;13.43;7.25;;;;;;;5.56;52.26;101257.38;5122971;28;20020;-58
2022/03/22 05:36:50;;;;;;;16.50;7.40;;;;;;;5.64;52.70;101263.59;5104670;28;20016;-58
2022/03/22 05:39:15;;;;;;;13.77;6.15;;;;;;;5.69;52.08;101255.16;5104685;28;20069;-58
2022/03/22 05:41:41;;;;;;;14.10;6.65;;;;;;;5.73;52.04;101255.22;5116504;28;20023;-57
2022/03/22 05:44:06;;;;;;;17.08;6.85;;;;;;;5.78;51.34;101248.50;5117157;28;20031;-57
2022/03/22 05:46:34;;;;;;;13.38;6.50;;;;;;;5.85;51.77;101240.94;5122964;28;20016;-57
2022/03/22 05:48:59;;;;;;;13.90;7.00;;;;;;;6.00;52.01;101247.31;5104805;28;20321;-61
2022/03/22 05:51:25;;;;;;;11.68;6.47;;;;;;;6.00;51.67;101240.47;5122254;28;20026;-57
2022/03/22 05:53:50;;;;;;;11.77;6.20;;;;;;;6.01;51.29;101237.09;5123720;28;20015;-57
2022/03/22 05:56:16;;;;;;;16.48;6.22;;;;;;;6.11;51.21;101242.41;5122409;28;20223;-58
2022/03/22 05:58:43;;;;;;;14.23;6.10;;;;;;;6.19;51.04;101246.88;5124255;28;20031;-57
2022/03/22 06:01:08;;;;;;;15.45;6.70;;;;;;;6.26;50.48;101240.19;5124745;28;20086;-59
2022/03/22 06:03:35;;;;;;;13.52;6.18;;;;;;;6.37;50.45;101240.41;5105506;27;20046;-58
2022/03/22 06:06:00;;;;;;;17.52;5.60;;;;;;;6.41;50.83;101242.19;5104291;28;20309;-58
2022/03/22 06:08:27;;;;;;;13.65;6.15;;;;;;;6.57;49.36;101241.69;5104087;28;20031;-60
2022/03/22 06:10:52;;;;;;;12.88;5.50;;;;;;;6.57;50.00;101231.41;5102393;28;20267;-61
2022/03/22 06:13:18;;;;;;;13.63;6.05;;;;;;;6.99;48.87;101241.63;5101168;28;20055;-58
2022/03/22 06:15:44;;;;;;;13.93;5.60;;;;;;;7.09;48.32;101234.06;5099792;28;20028;-58
2022/03/22 06:18:11;;;;;;;12.57;5.70;;;;;;;7.58;47.79;101239.22;5099593;28;20141;-59
2022/03/22 06:20:41;;;;;;;14.90;5.25;;;;;;;8.16;45.57;101230.59;5110641;28;20324;-60
2022/03/22 06:23:10;;;;;;;12.98;6.18;;;;;;;8.69;44.27;101228.72;5113161;27;20386;-58
2022/03/22 06:25:36;;;;;;;10.77;5.00;;;;;;;9.54;43.01;101239.88;5099791;28;20042;-60
2022/03/22 06:28:04;;;;;;;13.57;5.25;;;;;;;10.36;41.33;101221.44;5100027;28;20046;-58
2022/03/22 06:30:31;;;;;;;10.15;4.28;;;;;;;10.74;39.08;101221.56;5118142;28;20028;-59
2022/03/22 06:32:59;;;;;;;12.43;4.95;;;;;;;11.70;38.71;101219.91;5106758;28;20413;-58
2022/03/22 06:35:33;;;;;;;12.38;5.32;;;;;;;11.96;37.43;101204.31;5099173;28;20354;-63
2022/03/22 06:38:00;;;;;;;11.20;4.22;;;;;;;12.56;36.71;101213.63;5099900;28;20188;-62
2022/03/22 06:40:28;;;;;;;7.30;4.60;;;;;;;12.81;36.00;101206.53;5101870;28;20096;-58
2022/03/22 06:42:58;;;;;;;16.48;5.10;;;;;;;12.81;36.37;101209.16;5117726;28;20115;-59
2022/03/22 06:45:24;;;;;;;10.57;4.70;;;;;;;12.85;37.01;101208.25;5101137;28;20032;-58
2022/03/22 06:47:51;;;;;;;9.30;4.40;;;;;;;12.36;35.10;101190.34;5113324;28;20097;-59
2022/03/22 06:50:18;;;;;;;8.60;4.35;;;;;;;12.54;34.76;101204.97;5113205;28;20032;-60
2022/03/22 06:52:44;;;;;;;11.15;4.35;;;;;;;12.74;36.41;101202.25;5117493;28;20608;-59
2022/03/22 06:55:12;;;;;;;11.57;4.55;;;;;;;13.02;35.29;101148.34;5119338;28;20027;-59
2022/03/22 06:57:38;;;;;;;10.15;5.10;;;;;;;13.63;33.79;101198.16;5119621;28;20038;-59
2022/03/22 07:00:08;;;;;;;14.63;5.22;;;;;;;14.42;32.21;101192.94;5119032;28;20097;-59
2022/03/22 07:02:35;;;;;;;9.68;5.57;;;;;;;14.77;33.96;101181.19;5109782;28;20027;-59
2022/03/22 07:05:04;;;;;;;14.38;5.53;;;;;;;15.30;31.22;101178.59;5100873;28;20052;-59
2022/03/22 07:07:30;;;;;;;14.88;5.43;;;;;;;15.19;31.23;101190.97;5101504;28;20020;-59
2022/03/22 07:09:56;;;;;;;11.93;5.13;;;;;;;15.50;30.59;101180.00;5102232;28;20056;-59
2022/03/22 07:12:21;;;;;;;14.25;5.07;;;;;;;15.18;30.77;101186.66;5102878;28;20032;-59
2022/03/22 07:14:47;;;;;;;11.98;5.68;;;;;;;15.40;31.01;101170.63;5102318;28;20020;-59
2022/03/22 07:17:12;;;;;;;13.48;5.63;;;;;;;15.98;30.06;101187.00;5102893;28;20035;-59
2022/03/22 07:19:39;;;;;;;13.50;5.43;;;;;;;15.97;29.74;101188.75;5104950;28;20028;-59
2022/03/22 07:22:06;;;;;;;12.93;5.10;;;;;;;15.60;29.78;101184.19;5107970;28;20024;-60
2022/03/22 07:24:32;;;;;;;12.93;5.00;;;;;;;16.03;29.26;101191.25;5102620;28;20054;-59
2022/03/22 07:26:58;;;;;;;10.55;5.30;;;;;;;16.05;28.38;101188.63;5101936;28;20028;-59
2022/03/22 07:29:24;;;;;;;11.98;4.70;;;;;;;15.55;28.67;101191.25;5102933;28;20044;-60
2022/03/22 07:31:50;;;;;;;9.48;5.07;;;;;;;15.21;28.42;101194.44;5102922;28;20378;-60
2022/03/22 07:34:17;;;;;;;12.20;5.40;;;;;;;14.96;29.36;101139.16;5103344;28;20023;-59
2022/03/22 07:36:46;;;;;;;13.70;4.90;;;;;;;15.57;28.75;101189.47;5102886;28;20209;-59
2022/03/22 07:39:13;;;;;;;11.88;4.95;;;;;;;15.01;29.32;101138.19;5103085;28;20044;-59
2022/03/22 07:41:43;;;;;;;31.25;20.17;;;;;;;15.48;28.89;101184.41;5102540;28;20194;-59
2022/03/22 07:44:12;;;;;;;14.00;4.32;;;;;;;15.57;28.54;101192.06;5107837;28;20301;-60
2022/03/22 07:46:37;;;;;;;10.40;4.20;;;;;;;15.66;28.58;101189.31;5103106;28;20291;-58
2022/03/22 07:54:35;;;;;;;9.25;3.80;;;;;;;15.76;27.66;101176.94;5105701;28;20035;-58
2022/03/22 07:57:02;;;;;;;14.23;3.95;;;;;;;15.98;27.50;101169.56;5103807;28;20112;-59
2022/03/22 07:59:27;;;;;;;16.27;4.18;;;;;;;15.82;26.90;101173.41;5105616;28;20336;-61
2022/03/22 08:01:53;;;;;;;13.43;3.92;;;;;;;16.11;26.63;101164.09;5106071;28;20035;-59
2022/03/22 08:04:20;;;;;;;7.25;4.10;;;;;;;15.98;27.63;101166.97;5106714;28;20027;-57
2022/03/22 08:06:45;;;;;;;8.23;3.40;;;;;;;15.43;27.09;101171.41;5106681;28;20028;-59
2022/03/22 08:09:11;;;;;;;11.75;4.10;;;;;;;15.28;28.41;101167.34;5105951;28;20031;-58
2022/03/22 08:11:39;;;;;;;12.32;3.83;;;;;;;15.09;27.77;101163.31;5116248;28;20364;-59
2022/03/22 08:14:05;;;;;;;10.40;4.13;;;;;;;14.88;29.26;101167.09;5107422;28;20055;-59
2022/03/22 08:16:31;;;;;;;11.63;4.40;;;;;;;15.30;28.59;101165.56;5106946;28;20058;-58
2022/03/22 08:18:57;;;;;;;11.93;4.63;;;;;;;14.90;27.65;101162.75;5111719;27;20028;-58
2022/03/22 08:21:23;;;;;;;9.82;4.72;;;;;;;15.05;28.60;101156.41;5105924;28;20057;-59
2022/03/22 08:23:49;;;;;;;13.63;7.00;;;;;;;14.92;28.85;101153.13;5107058;28;20110;-58
2022/03/22 08:26:14;;;;;;;13.57;4.30;;;;;;;14.90;28.36;101140.13;5104977;28;20028;-59
2022/03/22 08:28:40;;;;;;;14.13;4.05;;;;;;;14.71;28.09;101134.34;5104624;28;20039;-59
2022/03/22 08:31:06;;;;;;;8.20;3.67;;;;;;;14.74;28.33;101139.50;5105513;28;20339;-59
2022/03/22 08:33:32;;;;;;;12.02;4.15;;;;;;;15.25;27.96;101125.63;5105326;28;20024;-58
2022/03/22 08:35:57;;;;;;;15.77;4.13;;;;;;;15.04;27.43;101116.41;5113876;28;20024;-59
2022/03/22 08:38:24;;;;;;;12.00;3.20;;;;;;;15.66;26.58;101108.34;5104981;28;20024;-59
2022/03/22 08:40:51;;;;;;;10.88;3.35;;;;;;;15.29;25.65;101061.16;5105125;28;20091;-59
2022/03/22 08:43:21;;;;;;;10.15;3.33;;;;;;;15.46;27.03;101098.28;5104720;28;20020;-59
2022/03/22 08:45:47;;;;;;;10.13;3.05;;;;;;;16.05;26.07;101113.66;5103327;28;20024;-58
2022/03/22 08:48:12;;;;;;;15.15;3.35;;;;;;;16.09;24.94;101119.72;5107225;28;20111;-59
2022/03/22 08:50:42;;;;;;;8.60;3.92;;;;;;;16.15;25.87;101080.38;5107076;28;20149;-61
2022/03/22 08:53:08;;;;;;;9.40;3.10;;;;;;;16.58;24.57;101115.13;5110654;28;20024;-58
2022/03/22 08:55:34;;;;;;;8.52;2.95;;;;;;;16.32;24.70;101111.34;5109955;28;20326;-60
2022/03/22 08:58:06;;;;;;;16.38;2.90;;;;;;;16.21;23.38;101106.34;5102780;28;20316;-58
2022/03/22 09:00:33;;;;;;;;;;;;;;;15.94;24.69;101112.19;5107798;28;20039;-59
2022/03/22 09:02:59;;;;;;;7.20;2.55;;;;;;;16.21;24.53;101102.91;5107484;28;19976;-59
2022/03/22 09:08:09;;;;;;;7.57;2.17;;;;;;;15.92;24.81;101100.88;5104544;28;20061;-59
2022/03/22 09:10:36;;;;;;;6.32;2.30;;;;;;;15.95;23.98;101096.47;5104512;28;20027;-59
2022/03/22 09:13:04;;;;;;;10.48;2.70;;;;;;;15.82;23.94;101053.22;5101945;28;20084;-58
2022/03/22 09:15:30;;;;;;;14.50;6.47;;;;;;;16.42;24.00;101098.94;5104215;28;20208;-57
2022/03/22 09:17:57;;;;;;;7.35;3.13;;;;;;;16.17;23.27;101070.72;5105175;28;20032;-60
2022/03/22 09:20:25;;;;;;;7.50;2.50;;;;;;;16.12;22.48;101101.34;5104319;28;20328;-59
2022/03/22 09:22:51;;;;;;;4.85;2.15;;;;;;;15.96;23.36;101098.19;5104627;28;20032;-58
2022/03/22 09:25:18;;;;;;;8.20;2.60;;;;;;;15.92;22.67;101093.94;5104137;28;20019;-58
2022/03/22 09:27:45;;;;;;;7.75;2.25;;;;;;;15.65;24.41;101085.72;5104232;28;20407;-58
2022/03/22 09:30:12;;;;;;;5.47;2.47;;;;;;;16.11;24.14;101106.59;5104974;28;20035;-58
2022/03/22 09:32:39;;;;;;;4.95;2.20;;;;;;;16.01;22.09;101106.78;5104464;28;20027;-58
2022/03/22 09:35:07;;;;;;;8.05;2.08;;;;;;;15.74;22.72;101096.88;5109325;28;20027;-58
2022/03/22 09:37:33;;;;;;;7.00;1.92;;;;;;;15.42;23.68;101093.13;5124590;28;20020;-58
2022/03/22 09:39:59;;;;;;;7.93;1.80;;;;;;;15.47;23.54;101094.75;5103841;28;20044;-58
2022/03/22 09:42:27;;;;;;;5.55;2.22;;;;;;;15.17;23.15;101094.44;5102408;28;20352;-59
2022/03/22 09:44:53;;;;;;;11.13;4.90;;;;;;;15.19;22.37;101094.41;5105283;28;20217;-58
2022/03/22 09:47:19;;;;;;;5.25;1.77;;;;;;;14.91;22.44;101087.06;5109538;28;20054;-59
2022/03/22 09:49:46;;;;;;;4.05;1.63;;;;;;;14.65;22.02;101088.34;5118942;28;20102;-58
2022/03/22 09:52:12;;;;;;;3.47;1.80;;;;;;;14.56;22.87;101101.47;5103475;28;20031;-58
2022/03/22 09:54:39;;;;;;;5.57;1.70;;;;;;;14.31;23.15;101031.47;5098799;28;20065;-59
2022/03/22 09:57:05;;;;;;;8.20;1.95;;;;;;;14.46;25.37;101086.88;5102952;28;20054;-58
2022/03/22 09:59:36;;;;;;;7.10;2.10;;;;;;;14.25;24.68;101081.09;5097727;28;20024;-59
2022/03/22 10:02:03;;;;;;;3.60;1.88;;;;;;;14.10;24.86;101083.91;5099624;28;20089;-57
2022/03/22 10:04:40;;;;;;;6.93;2.10;;;;;;;14.09;24.46;101087.38;5100217;28;20020;-58
2022/03/22 10:07:07;;;;;;;3.10;1.90;;;;;;;13.92;25.23;101079.78;5098992;28;20032;-57
2022/03/22 10:09:39;;;;;;;5.18;1.50;;;;;;;13.74;24.77;101032.28;5093867;28;20024;-58
2022/03/22 10:12:10;;;;;;;10.13;2.35;;;;;;;13.93;24.17;101060.69;5095478;28;20047;-57
2022/03/22 10:14:40;;;;;;;6.82;2.72;;;;;;;13.57;24.50;101021.22;5098022;28;20051;-58
2022/03/22 10:17:15;;;;;;;4.40;1.75;;;;;;;13.36;24.64;101012.78;5082701;28;20027;-59
2022/03/22 10:19:51;;;;;;;6.07;2.10;;;;;;;13.69;24.75;101057.50;5104131;28;20032;-58
2022/03/22 10:22:27;;;;;;;3.85;1.70;;;;;;;13.68;24.89;101060.13;5104814;27;20029;-58
2022/03/22 10:24:57;;;;;;;4.43;1.20;;;;;;;13.80;23.44;101062.59;5101986;28;20039;-58
2022/03/22 10:27:26;;;;;;;4.97;1.60;;;;;;;13.53;24.84;101003.91;5100909;28;20028;-58
2022/03/22 10:29:52;;;;;;;3.13;1.30;;;;;;;13.83;25.24;101054.72;5100803;28;20347;-58
2022/03/22 10:32:29;;;;;;;4.65;1.70;;;;;;;13.90;25.69;101064.19;5100958;28;20054;-58
2022/03/22 10:34:54;;;;;;;4.78;2.00;;;;;;;13.82;24.28;101055.59;5098450;28;20039;-59
2022/03/22 10:37:27;;;;;;;3.55;2.10;;;;;;;13.70;24.20;101054.03;5102940;28;20030;-58
2022/03/22 10:39:52;;;;;;;4.05;2.65;;;;;;;13.50;25.40;101049.06;5101082;28;20209;-57
2022/03/22 10:42:22;;;;;;;5.03;2.10;;;;;;;13.41;24.39;101052.63;5098432;28;20036;-58
2022/03/22 10:44:50;;;;;;;3.78;2.10;;;;;;;13.70;24.95;101043.59;5098292;28;20038;-57
2022/03/22 10:47:26;;;;;;;5.47;1.83;;;;;;;13.49;24.87;101013.50;5088346;28;20024;-58
2022/03/22 10:50:05;;;;;;;6.03;1.60;;;;;;;13.59;25.60;101030.72;5102513;28;20024;-58
2022/03/22 10:52:32;;;;;;;4.35;1.40;;;;;;;13.63;25.83;101039.34;5102886;28;20275;-58
2022/03/22 10:54:57;;;;;;;5.20;1.50;;;;;;;13.63;24.77;101042.81;5101665;28;20426;-60
2022/03/22 10:57:32;;;;;;;6.15;1.60;;;;;;;13.32;24.21;100986.78;5101818;28;20031;-60
2022/03/22 11:00:04;;;;;;;5.82;1.70;;;;;;;13.44;25.98;101033.53;5114288;28;20027;-61
2022/03/22 11:02:34;;;;;;;3.95;1.45;;;;;;;13.57;25.41;101053.31;5105196;28;20278;-59
2022/03/22 11:05:03;;;;;;;3.88;1.58;;;;;;;13.36;26.07;100991.09;5085887;28;20071;-59
2022/03/22 11:07:34;;;;;;;5.93;1.92;;;;;;;13.28;25.40;100971.22;5102710;28;20028;-57
2022/03/22 11:10:00;;;;;;;4.40;1.75;;;;;;;13.65;25.53;101034.97;5118420;28;20020;-58
2022/03/22 11:12:27;;;;;;;2.88;1.45;;;;;;;13.75;26.50;101025.31;5102223;28;20063;-58
2022/03/22 11:14:55;;;;;;;4.47;1.63;;;;;;;13.54;25.43;101022.13;5102108;28;20028;-58
2022/03/22 11:17:22;;;;;;;4.95;1.67;;;;;;;13.15;25.20;100971.34;5080926;28;20025;-57
2022/03/22 11:19:49;;;;;;;3.35;1.63;;;;;;;13.52;26.46;101023.84;5097253;28;20059;-55
2022/03/22 11:22:17;;;;;;;6.45;1.70;;;;;;;13.60;26.36;101014.22;5101120;28;20069;-57
2022/03/22 11:24:44;;;;;;;4.25;1.60;;;;;;;13.68;25.90;101014.13;5099031;28;20106;-55
2022/03/22 11:27:09;;;;;;;6.65;2.17;;;;;;;13.66;29.12;101015.03;5091449;28;20020;-54
2022/03/22 11:29:39;;;;;;;4.22;1.55;;;;;;;13.55;25.32;101007.34;5097463;28;20359;-55
2022/03/22 11:35:00;;;;;;;2.95;1.77;;;;;;;13.69;26.82;101015.00;5094987;28;20403;-58
2022/03/22 11:37:30;;;;;;;3.70;1.50;;;;;;;13.60;26.30;101010.75;5086692;28;20088;-59
2022/03/22 11:42:54;;;;;;;5.25;1.73;;;;;;;13.69;29.50;101008.03;5099465;28;20094;-59
2022/03/22 11:45:20;;;;;;;4.40;1.60;;;;;;;13.67;26.66;101008.94;5098722;28;20043;-58
2022/03/22 11:47:49;;;;;;;3.25;1.50;;;;;;;13.64;27.50;101007.25;5093398;28;20024;-59
2022/03/22 11:50:18;;;;;;;7.18;1.98;;;;;;;13.59;26.81;100999.47;5085631;28;20043;-59
2022/03/22 11:52:46;;;;;;;4.07;1.60;;;;;;;13.28;26.59;100972.94;5097607;28;20198;-59
2022/03/22 11:55:17;;;;;;;3.47;1.30;;;;;;;13.12;26.01;100964.44;5091732;28;20036;-60
2022/03/22 11:58:13;;;;;;;2.25;1.40;;;;;;;13.39;27.36;100993.66;5098511;28;20035;-59